Time;durP1;ratioP1;P1;durP2;ratioP2;P2;SDS_P1;SDS_P2;PMS_P1;PMS_P2;Temp;Humidity;BMP_temperature;BMP_pressure;BME280_temperature;BME280_humidity;BME280_pressure;Samples;Min_cycle;Max_cycle;Signal;HPM_P1;HPM_P2
2023/09/17 00:00:39;;;;;;;9.27;6.65;;;19.50;85.90;;;;;;5034126;28;20582;-27
2023/09/17 00:03:05;;;;;;;8.27;6.68;;;20.40;74.80;;;;;;5034080;28;20128;-27
2023/09/17 00:05:33;;;;;;;8.88;6.20;;;;;;;;;;5034021;28;20120;-27
2023/09/17 00:07:59;;;;;;;9.25;6.18;;;20.10;81.40;;;;;;5034160;28;20132;-27
2023/09/17 00:10:26;;;;;;;10.48;6.22;;;20.50;86.10;;;;;;5033991;28;20137;-27
2023/09/17 00:12:55;;;;;;;7.88;6.07;;;;;;;;;;5033814;28;20152;-28
2023/09/17 00:15:21;;;;;;;8.02;5.93;;;20.50;86.10;;;;;;5033648;28;20056;-27
2023/09/17 00:17:49;;;;;;;8.88;6.40;;;20.60;86.60;;;;;;5033782;28;20133;-27
2023/09/17 00:20:16;;;;;;;7.15;5.85;;;20.20;86.80;;;;;;5033635;28;20128;-27
2023/09/17 00:22:43;;;;;;;9.18;6.32;;;19.90;82.00;;;;;;5033900;28;20136;-27
2023/09/17 00:25:10;;;;;;;7.38;5.68;;;20.00;81.60;;;;;;5033327;28;20128;-27
2023/09/17 00:27:39;;;;;;;8.85;6.47;;;;;;;;;;5033765;28;20056;-28
2023/09/17 00:30:07;;;;;;;8.65;5.88;;;20.00;73.00;;;;;;5033223;28;20482;-28
2023/09/17 00:32:33;;;;;;;8.35;5.70;;;19.50;74.50;;;;;;5033629;28;20057;-28
2023/09/17 00:35:03;;;;;;;9.50;5.78;;;20.20;68.90;;;;;;5032393;28;20056;-27
2023/09/17 00:37:30;;;;;;;8.80;6.32;;;;;;;;;;5026596;28;20049;-27
2023/09/17 00:39:57;;;;;;;7.93;5.55;;;20.60;86.00;;;;;;5033251;28;20132;-27
2023/09/17 00:42:24;;;;;;;8.98;5.97;;;;;;;;;;5033241;28;20050;-27
2023/09/17 00:44:51;;;;;;;9.25;5.90;;;20.40;86.20;;;;;;5033138;28;20132;-27
2023/09/17 00:47:18;;;;;;;7.35;5.53;;;;;;;;;;5032897;28;20050;-28
2023/09/17 00:49:45;;;;;;;8.75;6.40;;;19.20;86.40;;;;;;5033083;28;20053;-27
2023/09/17 00:52:15;;;;;;;7.35;5.45;;;20.20;68.90;;;;;;5033479;28;20578;-29
2023/09/17 00:54:42;;;;;;;9.55;6.28;;;;;;;;;;5032803;28;20413;-27
2023/09/17 00:57:09;;;;;;;6.90;5.68;;;21.00;86.20;;;;;;5051931;28;20128;-27
2023/09/17 00:59:37;;;;;;;7.82;5.97;;;;;;;;;;5053066;28;20132;-27
2023/09/17 01:02:04;;;;;;;7.38;5.47;;;;;;;;;;5043457;28;20053;-31
2023/09/17 01:04:31;;;;;;;7.10;5.53;;;19.70;86.50;;;;;;5032423;28;20558;-27
2023/09/17 01:06:59;;;;;;;8.13;6.00;;;20.30;82.00;;;;;;5032657;28;20137;-27
2023/09/17 01:09:27;;;;;;;7.25;5.38;;;19.00;85.40;;;;;;5032650;28;20053;-27
2023/09/17 01:11:53;;;;;;;8.35;5.82;;;20.30;86.20;;;;;;5033054;28;20080;-27
2023/09/17 01:14:21;;;;;;;8.90;5.95;;;19.80;77.10;;;;;;5032523;28;20129;-28
2023/09/17 01:16:48;;;;;;;7.63;5.60;;;20.70;82.60;;;;;;5032632;28;20111;-27
2023/09/17 01:19:17;;;;;;;7.45;5.90;;;20.10;68.90;;;;;;5032458;28;20095;-28
2023/09/17 01:21:48;;;;;;;6.85;5.53;;;20.30;87.00;;;;;;5032445;28;20045;-27
2023/09/17 01:24:21;;;;;;;8.32;5.90;;;20.40;69.10;;;;;;5032431;28;20092;-28
2023/09/17 01:26:58;;;;;;;8.43;5.75;;;20.10;68.90;;;;;;5032531;28;20080;-27
2023/09/17 01:29:25;;;;;;;6.78;5.40;;;19.70;86.20;;;;;;5032726;28;20080;-27
2023/09/17 01:31:52;;;;;;;7.28;5.45;;;20.40;86.20;;;;;;5032275;28;20498;-27
2023/09/17 01:34:19;;;;;;;7.35;5.57;;;20.10;86.10;;;;;;5031953;28;20052;-27
2023/09/17 01:36:46;;;;;;;7.10;5.50;;;;;;;;;;5032033;28;20132;-27
2023/09/17 01:39:14;;;;;;;7.35;5.30;;;19.90;85.60;;;;;;5032541;28;20140;-26
2023/09/17 01:41:41;;;;;;;7.32;5.50;;;19.90;84.20;;;;;;5032370;28;20049;-27
2023/09/17 01:44:09;;;;;;;7.43;5.43;;;20.20;81.50;;;;;;5032028;28;20486;-27
2023/09/17 01:46:36;;;;;;;6.28;5.47;;;20.40;80.20;;;;;;5031978;28;20133;-28
2023/09/17 01:49:03;;;;;;;6.40;5.03;;;19.70;86.40;;;;;;5032090;28;20132;-27
2023/09/17 01:51:30;;;;;;;6.38;4.63;;;;;;;;;;5031800;28;20454;-29
2023/09/17 01:53:57;;;;;;;6.75;5.65;;;19.80;86.00;;;;;;5032008;28;20414;-27
2023/09/17 01:56:24;;;;;;;7.40;5.40;;;;;;;;;;5044221;28;20128;-27
2023/09/17 01:58:50;;;;;;;6.18;5.03;;;19.90;85.70;;;;;;5051886;28;20132;-27
2023/09/17 02:01:19;;;;;;;6.53;5.30;;;20.40;75.30;;;;;;5051802;28;20127;-27
2023/09/17 02:03:45;;;;;;;5.72;5.13;;;19.90;85.80;;;;;;5052095;28;20059;-27
2023/09/17 02:06:12;;;;;;;5.90;4.75;;;19.80;72.40;;;;;;5049391;28;20131;-27
2023/09/17 02:08:39;;;;;;;6.78;5.35;;;19.80;85.70;;;;;;5032171;28;20129;-27
2023/09/17 02:11:06;;;;;;;6.38;5.15;;;20.10;85.90;;;;;;5031865;28;20133;-27
2023/09/17 02:13:33;;;;;;;6.50;5.05;;;21.00;83.20;;;;;;5031961;28;20086;-27
2023/09/17 02:16:00;;;;;;;6.10;4.57;;;19.90;86.10;;;;;;5031390;28;20060;-27
2023/09/17 02:18:28;;;;;;;5.47;4.93;;;20.10;68.90;;;;;;5032055;28;20092;-30
2023/09/17 02:20:55;;;;;;;7.55;4.80;;;;;;;;;;5031835;28;20053;-29
2023/09/17 02:23:22;;;;;;;6.70;4.97;;;;;;;;;;5031492;28;20128;-27
2023/09/17 02:25:49;;;;;;;6.75;5.50;;;;;;;;;;5031644;28;20128;-29
2023/09/17 02:28:16;;;;;;;6.93;5.15;;;20.20;74.10;;;;;;5031369;28;20125;-28
2023/09/17 02:30:42;;;;;;;4.90;4.22;;;19.70;85.70;;;;;;5031598;28;20053;-27
2023/09/17 02:33:10;;;;;;;6.28;5.07;;;20.40;78.00;;;;;;5031951;28;20510;-27
2023/09/17 02:35:38;;;;;;;6.43;5.32;;;20.40;86.50;;;;;;5031502;28;20049;-27
2023/09/17 02:38:05;;;;;;;7.10;4.93;;;19.90;86.10;;;;;;5031079;28;20220;-27
2023/09/17 02:40:32;;;;;;;5.97;5.20;;;;;;;;;;5031167;28;20144;-27
2023/09/17 02:42:58;;;;;;;5.78;4.78;;;19.00;85.80;;;;;;5031536;28;20132;-27
2023/09/17 02:45:25;;;;;;;7.85;5.35;;;;;;;;;;5031709;28;20124;-28
2023/09/17 02:47:52;;;;;;;5.95;4.80;;;19.60;85.50;;;;;;5031667;28;20081;-27
2023/09/17 02:50:19;;;;;;;5.95;4.80;;;19.30;85.60;;;;;;5031390;28;20137;-27
2023/09/17 02:52:47;;;;;;;7.53;5.05;;;19.00;85.30;;;;;;5031540;28;20049;-27
2023/09/17 02:55:14;;;;;;;6.50;5.18;;;19.50;85.90;;;;;;5031376;28;20073;-27
2023/09/17 02:57:41;;;;;;;6.22;5.05;;;19.60;86.00;;;;;;5033606;28;20125;-27
2023/09/17 03:00:10;;;;;;;5.78;5.15;;;20.00;69.00;;;;;;5034950;28;20132;-29
2023/09/17 03:02:38;;;;;;;5.22;4.72;;;20.50;86.60;;;;;;5034083;28;20099;-27
2023/09/17 03:05:05;;;;;;;6.13;4.97;;;20.80;86.40;;;;;;5035248;28;20446;-27
2023/09/17 03:07:32;;;;;;;6.25;4.80;;;;;;;;;;5035356;28;20136;-29
2023/09/17 03:10:02;;;;;;;6.00;4.88;;;19.90;86.30;;;;;;5035179;28;20132;-27
2023/09/17 03:12:30;;;;;;;6.10;5.07;;;19.90;86.30;;;;;;5034994;28;20534;-27
2023/09/17 03:14:57;;;;;;;5.50;4.53;;;;;;;;;;5034863;28;20140;-27
2023/09/17 03:17:24;;;;;;;7.28;5.45;;;;;;;;;;5034860;28;20554;-29
2023/09/17 03:19:52;;;;;;;5.53;4.65;;;20.60;86.40;;;;;;5034819;28;20566;-27
2023/09/17 03:22:19;;;;;;;6.10;4.88;;;;;;;;;;5035117;28;20128;-28
2023/09/17 03:24:45;;;;;;;7.18;5.20;;;20.00;86.50;;;;;;5034481;28;20042;-28
2023/09/17 03:27:13;;;;;;;5.63;4.68;;;21.00;84.60;;;;;;5034465;28;20124;-27
2023/09/17 03:29:40;;;;;;;6.20;4.72;;;20.10;86.90;;;;;;5034860;28;20064;-27
2023/09/17 03:32:07;;;;;;;6.05;5.03;;;19.90;78.50;;;;;;5034785;28;20128;-28
2023/09/17 03:34:34;;;;;;;5.10;4.60;;;20.50;86.40;;;;;;5034411;28;20045;-30
2023/09/17 03:37:01;;;;;;;5.97;4.85;;;;;;;;;;5034087;28;20061;-30
2023/09/17 03:39:27;;;;;;;6.85;5.50;;;19.60;85.80;;;;;;5034734;28;20128;-29
2023/09/17 03:41:54;;;;;;;5.72;4.88;;;;;;;;;;5034536;28;20132;-30
2023/09/17 03:44:23;;;;;;;6.25;5.10;;;19.00;76.40;;;;;;5033943;28;20128;-30
2023/09/17 03:46:49;;;;;;;5.47;4.80;;;20.10;76.00;;;;;;5034438;28;20080;-30
2023/09/17 03:49:16;;;;;;;5.20;4.63;;;20.10;86.40;;;;;;5034502;28;20446;-30
2023/09/17 03:51:43;;;;;;;5.85;4.95;;;19.60;86.10;;;;;;5034320;28;20132;-30
2023/09/17 03:54:10;;;;;;;5.75;4.85;;;;;;;;;;5034506;28;20132;-30
2023/09/17 03:56:36;;;;;;;6.28;4.93;;;19.60;77.20;;;;;;5047987;28;20545;-30
2023/09/17 03:59:04;;;;;;;5.47;4.72;;;;;;;;;;5054312;28;20128;-30
2023/09/17 04:01:32;;;;;;;6.22;5.28;;;20.30;83.20;;;;;;5038447;28;20042;-30
2023/09/17 04:03:59;;;;;;;5.35;4.82;;;20.10;86.60;;;;;;5034027;28;20136;-30
2023/09/17 04:06:26;;;;;;;6.15;4.85;;;19.60;72.80;;;;;;5033675;28;20491;-30
2023/09/17 04:08:52;;;;;;;6.00;5.32;;;20.30;86.40;;;;;;5033104;28;20132;-30
2023/09/17 04:11:19;;;;;;;5.35;4.65;;;19.80;86.90;;;;;;5034279;28;20469;-30
2023/09/17 04:13:46;;;;;;;5.10;4.60;;;;;;;;;;5034052;28;20136;-29
2023/09/17 04:16:13;;;;;;;6.63;5.03;;;20.40;87.30;;;;;;5034179;28;20130;-30
2023/09/17 04:18:41;;;;;;;5.45;4.43;;;20.20;86.90;;;;;;5053722;28;20817;-30
2023/09/17 04:21:08;;;;;;;5.82;4.70;;;;;;;;;;5044842;28;20144;-30
2023/09/17 04:23:35;;;;;;;5.07;4.57;;;19.80;86.10;;;;;;5033784;28;20133;-30
2023/09/17 04:26:02;;;;;;;6.82;5.30;;;;;;;;;;5033404;28;20128;-30
2023/09/17 04:28:29;;;;;;;6.10;4.80;;;19.40;86.60;;;;;;5033602;28;20088;-27
2023/09/17 04:30:56;;;;;;;5.85;5.22;;;19.60;86.20;;;;;;5033386;28;20060;-27
2023/09/17 04:33:23;;;;;;;7.10;5.13;;;19.50;78.00;;;;;;5033485;28;20148;-28
2023/09/17 04:35:56;;;;;;;5.88;5.10;;;19.90;69.10;;;;;;5033436;28;20132;-29
2023/09/17 04:38:23;;;;;;;6.38;4.95;;;;;;;;;;5027852;28;20131;-29
2023/09/17 04:40:49;;;;;;;6.18;5.00;;;19.90;86.30;;;;;;5032942;28;20129;-27
2023/09/17 04:43:16;;;;;;;5.82;5.22;;;20.40;87.00;;;;;;5032702;28;20148;-27
2023/09/17 04:45:43;;;;;;;5.85;5.22;;;18.90;80.20;;;;;;5032431;28;20057;-27
2023/09/17 04:48:11;;;;;;;6.05;5.20;;;19.90;86.00;;;;;;5032191;28;20048;-27
2023/09/17 04:50:40;;;;;;;6.57;5.45;;;;;;;;;;5032700;28;20046;-27
2023/09/17 04:53:08;;;;;;;6.28;5.10;;;19.40;86.10;;;;;;5032827;28;20562;-27
2023/09/17 04:55:35;;;;;;;6.47;5.15;;;;;;;;;;5032806;28;20046;-27
2023/09/17 04:58:02;;;;;;;7.13;5.75;;;20.40;84.30;;;;;;5033283;28;20248;-27
2023/09/17 05:00:28;;;;;;;6.40;5.30;;;20.00;87.00;;;;;;5032841;28;20159;-27
2023/09/17 05:02:56;;;;;;;5.80;5.00;;;;;;;;;;5033156;28;20129;-28
2023/09/17 05:05:22;;;;;;;6.57;5.28;;;19.40;78.10;;;;;;5032879;28;20124;-29
2023/09/17 05:07:49;;;;;;;5.90;5.20;;;19.70;85.90;;;;;;5032694;28;20128;-30
2023/09/17 05:10:17;;;;;;;6.38;5.22;;;19.90;74.00;;;;;;5032804;28;20053;-29
2023/09/17 05:12:44;;;;;;;6.57;4.85;;;;;;;;;;5033003;28;20414;-29
2023/09/17 05:15:12;;;;;;;5.70;5.10;;;19.50;86.20;;;;;;5032533;28;20129;-30
2023/09/17 05:17:38;;;;;;;5.30;4.78;;;19.90;86.00;;;;;;5032368;28;20053;-30
2023/09/17 05:20:07;;;;;;;6.40;5.03;;;18.80;85.60;;;;;;5032271;28;20458;-29
2023/09/17 05:22:34;;;;;;;6.45;4.88;;;20.00;86.70;;;;;;5032724;28;20573;-29
2023/09/17 05:25:01;;;;;;;6.80;4.95;;;19.90;86.90;;;;;;5032323;28;20503;-29
2023/09/17 05:27:29;;;;;;;5.32;4.72;;;19.80;69.00;;;;;;5032397;28;20132;-30
2023/09/17 05:29:55;;;;;;;6.13;4.82;;;19.80;86.50;;;;;;5032271;28;20125;-29
2023/09/17 05:32:22;;;;;;;6.97;4.57;;;;;;;;;;5032237;28;20140;-28
2023/09/17 05:34:49;;;;;;;6.65;4.80;;;;;;;;;;5032132;28;20529;-30
2023/09/17 05:37:17;;;;;;;5.32;4.57;;;;;;;;;;5032101;28;20144;-28
2023/09/17 05:39:43;;;;;;;5.85;4.47;;;19.70;86.90;;;;;;5032410;28;20084;-29
2023/09/17 05:42:10;;;;;;;6.35;4.57;;;20.40;86.80;;;;;;5032239;28;20083;-30
2023/09/17 05:44:38;;;;;;;5.70;4.78;;;19.10;76.20;;;;;;5032161;28;20128;-29
2023/09/17 05:47:05;;;;;;;5.82;5.10;;;19.80;84.30;;;;;;5032413;28;20045;-29
2023/09/17 05:49:32;;;;;;;5.07;4.38;;;20.60;86.60;;;;;;5031497;28;20359;-29
2023/09/17 05:51:59;;;;;;;6.68;4.85;;;;;;;;;;5030930;28;20080;-29
2023/09/17 05:54:26;;;;;;;5.93;5.05;;;;;;;;;;5031358;28;20060;-27
2023/09/17 05:56:53;;;;;;;5.53;4.78;;;20.10;79.30;;;;;;5048026;28;20045;-29
2023/09/17 05:59:20;;;;;;;5.75;4.88;;;19.70;86.40;;;;;;5052242;28;20152;-29
2023/09/17 06:01:48;;;;;;;5.72;4.80;;;19.90;86.30;;;;;;5051875;28;20208;-29
2023/09/17 06:04:15;;;;;;;5.50;4.90;;;20.20;87.20;;;;;;5052043;28;20140;-29
2023/09/17 06:06:42;;;;;;;5.55;4.47;;;;;;;;;;5033680;28;20132;-30
2023/09/17 06:09:09;;;;;;;6.03;4.50;;;19.70;86.20;;;;;;5031757;28;20132;-27
2023/09/17 06:11:35;;;;;;;4.90;4.40;;;20.20;77.10;;;;;;5032108;28;20045;-27
2023/09/17 06:14:02;;;;;;;6.53;4.65;;;20.30;87.00;;;;;;5031814;28;20136;-27
2023/09/17 06:16:29;;;;;;;4.90;4.40;;;19.40;76.60;;;;;;5031635;28;20045;-27
2023/09/17 06:18:57;;;;;;;5.30;4.68;;;20.00;77.70;;;;;;5031947;28;20553;-27
2023/09/17 06:21:24;;;;;;;5.75;4.93;;;20.10;79.80;;;;;;5029680;28;20131;-27
2023/09/17 06:23:51;;;;;;;5.43;4.65;;;;;;;;;;5030570;28;20562;-28
2023/09/17 06:26:18;;;;;;;5.72;4.70;;;;;;;;;;5031231;28;20558;-29
2023/09/17 06:28:45;;;;;;;5.05;4.55;;;20.50;81.00;;;;;;5031285;28;20474;-27
2023/09/17 06:31:11;;;;;;;4.57;4.18;;;19.60;86.20;;;;;;5028119;28;20133;-27
2023/09/17 06:33:38;;;;;;;5.35;4.45;;;;;;;;;;5016137;28;20573;-27
2023/09/17 06:36:07;;;;;;;6.32;4.72;;;19.80;87.30;;;;;;5017178;28;20578;-27
2023/09/17 06:38:33;;;;;;;6.03;4.78;;;19.60;86.20;;;;;;5035079;28;20144;-27
2023/09/17 06:41:00;;;;;;;5.05;4.15;;;;;;;;;;5035544;28;20141;-29
2023/09/17 06:43:29;;;;;;;5.65;4.75;;;19.00;86.10;;;;;;5035826;28;20132;-27
2023/09/17 06:45:56;;;;;;;5.05;4.40;;;20.80;70.40;;;;;;5035394;28;20045;-27
2023/09/17 06:48:24;;;;;;;4.70;4.07;;;19.50;87.20;;;;;;5035545;28;20049;-27
2023/09/17 06:50:51;;;;;;;4.40;4.00;;;;;;;;;;5035336;28;20049;-29
2023/09/17 06:53:19;;;;;;;4.88;4.38;;;19.30;87.00;;;;;;5035179;28;20140;-28
2023/09/17 06:55:45;;;;;;;4.63;4.13;;;20.70;87.00;;;;;;5039896;28;20470;-28
2023/09/17 06:58:16;;;;;;;4.50;4.00;;;20.10;87.10;;;;;;5024532;28;20131;-27
2023/09/17 07:00:43;;;;;;;4.40;4.00;;;;;;;;;;5015702;28;20523;-28
2023/09/17 07:03:10;;;;;;;4.80;3.97;;;20.20;87.70;;;;;;5015623;28;20487;-27
2023/09/17 07:05:36;;;;;;;5.03;4.35;;;19.50;86.50;;;;;;5015431;28;20138;-27
2023/09/17 07:08:03;;;;;;;4.43;3.78;;;19.40;75.90;;;;;;5015559;28;20053;-28
2023/09/17 07:10:32;;;;;;;4.65;3.90;;;19.60;86.90;;;;;;5028744;28;20054;-27
2023/09/17 07:12:58;;;;;;;5.70;4.18;;;20.50;87.90;;;;;;5020835;28;20046;-29
2023/09/17 07:15:26;;;;;;;5.00;3.85;;;;;;;;;;5015133;28;20129;-29
2023/09/17 07:17:53;;;;;;;3.83;3.42;;;20.20;86.90;;;;;;5015125;28;20042;-30
2023/09/17 07:20:20;;;;;;;4.57;4.07;;;19.70;86.60;;;;;;5015205;28;20555;-29
2023/09/17 07:22:48;;;;;;;4.45;3.97;;;20.10;86.90;;;;;;5022931;28;20145;-29
2023/09/17 07:25:14;;;;;;;5.22;3.97;;;20.20;87.80;;;;;;5034847;28;20084;-30
2023/09/17 07:27:42;;;;;;;5.20;4.22;;;20.60;87.20;;;;;;5034456;28;20578;-29
2023/09/17 07:30:10;;;;;;;5.18;4.10;;;19.70;70.90;;;;;;5034913;28;20124;-30
2023/09/17 07:32:37;;;;;;;4.72;3.97;;;20.10;87.30;;;;;;5034868;28;20149;-29
2023/09/17 07:35:04;;;;;;;4.63;3.85;;;19.60;87.60;;;;;;5033851;28;20053;-30
2023/09/17 07:37:31;;;;;;;4.95;3.67;;;20.20;86.90;;;;;;5030805;28;20066;-29
2023/09/17 07:40:01;;;;;;;4.47;3.60;;;19.80;86.80;;;;;;5033493;28;20470;-29
2023/09/17 07:42:28;;;;;;;4.25;3.35;;;;;;;;;;5029724;28;20053;-28
2023/09/17 07:44:56;;;;;;;4.07;3.60;;;20.00;69.60;;;;;;5032585;28;20132;-29
2023/09/17 07:47:23;;;;;;;5.55;3.80;;;20.20;87.80;;;;;;5034031;28;20129;-29
2023/09/17 07:49:50;;;;;;;4.38;3.85;;;19.60;87.00;;;;;;5030879;28;20658;-29
2023/09/17 07:52:17;;;;;;;4.35;3.80;;;19.40;83.00;;;;;;5034257;28;20167;-29
2023/09/17 07:54:44;;;;;;;4.10;3.53;;;19.90;72.20;;;;;;5034367;28;20136;-29
2023/09/17 07:57:12;;;;;;;4.65;3.45;;;19.90;69.60;;;;;;5053057;28;20472;-29
2023/09/17 07:59:39;;;;;;;5.47;3.47;;;;;;;;;;5054488;28;20145;-29
2023/09/17 08:02:07;;;;;;;4.22;3.67;;;20.20;87.80;;;;;;5042155;28;20049;-27
2023/09/17 08:04:34;;;;;;;4.13;3.55;;;20.00;87.70;;;;;;5033451;28;20491;-27
2023/09/17 08:07:00;;;;;;;4.18;3.47;;;20.90;87.40;;;;;;5033521;28;20057;-27
2023/09/17 08:09:27;;;;;;;4.63;3.30;;;20.20;75.90;;;;;;5034330;28;20132;-27
2023/09/17 08:11:54;;;;;;;6.47;3.80;;;;;;;;;;5033894;28;20137;-27
2023/09/17 08:14:22;;;;;;;4.53;3.40;;;;;;;;;;5033973;28;20095;-29
2023/09/17 08:16:49;;;;;;;5.20;3.72;;;20.00;69.70;;;;;;5033673;28;20049;-28
2023/09/17 08:19:17;;;;;;;5.07;3.50;;;19.70;86.70;;;;;;5034103;28;20049;-30
2023/09/17 08:21:44;;;;;;;6.15;3.70;;;19.60;87.10;;;;;;5034245;28;20128;-30
2023/09/17 08:24:12;;;;;;;4.00;3.20;;;20.20;87.70;;;;;;5033637;28;20186;-30
2023/09/17 08:26:39;;;;;;;5.45;3.30;;;;;;;;;;5033228;28;20050;-30
2023/09/17 08:29:06;;;;;;;5.40;3.70;;;20.50;87.40;;;;;;5034203;28;20144;-27
2023/09/17 08:31:34;;;;;;;4.38;3.50;;;20.30;87.80;;;;;;5033907;28;20124;-27
2023/09/17 08:34:03;;;;;;;5.18;3.45;;;19.70;87.40;;;;;;5033997;28;20053;-27
2023/09/17 08:36:32;;;;;;;5.90;3.40;;;20.00;73.40;;;;;;5032889;28;20046;-27
2023/09/17 08:38:59;;;;;;;6.38;3.75;;;20.40;87.10;;;;;;5033642;28;20088;-27
2023/09/17 08:41:26;;;;;;;5.57;3.40;;;;;;;;;;5033029;28;20120;-29
2023/09/17 08:43:53;;;;;;;4.68;3.72;;;20.10;69.60;;;;;;5033829;28;20129;-28
2023/09/17 08:46:21;;;;;;;5.28;3.15;;;;;;;;;;5033113;28;20132;-27
2023/09/17 08:48:48;;;;;;;7.05;3.22;;;;;;;;;;5033127;28;20069;-28
2023/09/17 08:51:18;;;;;;;4.15;3.45;;;20.60;86.60;;;;;;5033061;28;20120;-27
2023/09/17 08:53:49;;;;;;;9.45;3.53;;;19.60;85.30;;;;;;5033298;28;20081;-27
2023/09/17 08:56:17;;;;;;;4.85;3.40;;;;;;;;;;5043690;28;20064;-27
2023/09/17 08:58:47;;;;;;;4.50;3.40;;;20.40;86.80;;;;;;5033766;28;20049;-27
2023/09/17 09:01:14;;;;;;;4.15;3.50;;;18.90;86.50;;;;;;5032889;28;20061;-27
2023/09/17 09:03:41;;;;;;;4.05;3.13;;;20.50;87.20;;;;;;5033069;28;20133;-27
2023/09/17 09:06:09;;;;;;;4.97;3.45;;;20.00;87.30;;;;;;5032675;28;20558;-27
2023/09/17 09:08:35;;;;;;;7.47;3.30;;;19.90;86.90;;;;;;5033000;28;20053;-27
2023/09/17 09:11:03;;;;;;;4.25;3.13;;;20.10;69.50;;;;;;5033099;28;20133;-27
2023/09/17 09:13:30;;;;;;;4.70;3.40;;;19.70;86.60;;;;;;5032714;28;20125;-27
2023/09/17 09:15:57;;;;;;;10.10;3.53;;;20.00;81.90;;;;;;5032688;28;20141;-27
2023/09/17 09:18:24;;;;;;;6.32;3.20;;;19.80;87.10;;;;;;5032610;28;20569;-27
2023/09/17 09:20:51;;;;;;;5.03;3.35;;;;;;;;;;5032701;28;20053;-28
2023/09/17 09:23:18;;;;;;;4.25;3.30;;;20.00;86.80;;;;;;5032584;28;20582;-27
2023/09/17 09:25:45;;;;;;;4.35;3.55;;;20.10;86.30;;;;;;5032625;28;20077;-27
2023/09/17 09:28:13;;;;;;;5.38;3.50;;;19.60;86.20;;;;;;5032780;28;20042;-27
2023/09/17 09:30:41;;;;;;;5.10;3.20;;;20.20;87.30;;;;;;5032397;28;20542;-27
2023/09/17 09:33:08;;;;;;;3.70;3.08;;;20.40;83.70;;;;;;5032250;28;20136;-28
2023/09/17 09:35:35;;;;;;;4.90;3.17;;;;;;;;;;5032263;28;20064;-28
2023/09/17 09:38:02;;;;;;;3.85;3.05;;;19.60;74.30;;;;;;5031964;28;20104;-27
2023/09/17 09:40:29;;;;;;;5.03;3.47;;;20.40;86.90;;;;;;5032924;28;20091;-27
2023/09/17 09:42:56;;;;;;;4.82;3.17;;;19.80;76.50;;;;;;5032628;28;20078;-27
2023/09/17 09:45:24;;;;;;;4.80;3.20;;;20.00;86.30;;;;;;5031685;28;20132;-27
2023/09/17 09:47:51;;;;;;;6.53;3.35;;;19.30;86.80;;;;;;5032346;28;20128;-27
2023/09/17 09:50:22;;;;;;;4.70;3.50;;;20.20;69.30;;;;;;5032119;28;20133;-28
2023/09/17 09:52:49;;;;;;;5.50;3.25;;;20.70;87.50;;;;;;5032503;28;20058;-27
2023/09/17 09:55:15;;;;;;;4.18;3.38;;;20.60;87.00;;;;;;5035112;28;20044;-27
2023/09/17 09:57:42;;;;;;;4.32;3.05;;;20.80;76.10;;;;;;5050744;28;20127;-27
2023/09/17 10:00:14;;;;;;;6.32;3.17;;;20.10;86.40;;;;;;5032080;28;20128;-27
2023/09/17 10:02:43;;;;;;;5.63;3.28;;;20.70;87.00;;;;;;5031769;28;20049;-27
2023/09/17 10:05:12;;;;;;;5.00;3.40;;;19.70;86.50;;;;;;5032178;28;20099;-27
2023/09/17 10:07:39;;;;;;;6.20;3.13;;;19.90;77.90;;;;;;5031969;28;20418;-27
2023/09/17 10:10:08;;;;;;;5.03;3.33;;;20.40;87.30;;;;;;5032394;28;20475;-27
2023/09/17 10:12:35;;;;;;;5.38;3.10;;;;;;;;;;5032119;28;20054;-27
2023/09/17 10:15:04;;;;;;;3.88;3.03;;;21.00;80.60;;;;;;5031713;28;20148;-27
2023/09/17 10:17:32;;;;;;;5.43;3.13;;;;;;;;;;5031593;28;20045;-28
2023/09/17 10:20:00;;;;;;;4.45;3.00;;;20.50;72.10;;;;;;5012409;28;20108;-27
2023/09/17 10:22:27;;;;;;;3.97;3.15;;;;;;;;;;5011981;28;20137;-28
2023/09/17 10:24:55;;;;;;;4.32;3.20;;;;;;;;;;5012029;28;20093;-28
2023/09/17 10:27:22;;;;;;;5.22;3.30;;;20.90;87.40;;;;;;5011947;28;20053;-27
2023/09/17 10:29:50;;;;;;;4.40;3.03;;;19.60;86.40;;;;;;5012316;28;20129;-27
2023/09/17 10:32:18;;;;;;;4.43;2.95;;;20.10;71.60;;;;;;5012119;28;20057;-28
2023/09/17 10:34:44;;;;;;;4.10;2.75;;;20.40;86.50;;;;;;5022479;28;20132;-27
2023/09/17 10:37:13;;;;;;;4.28;3.28;;;20.20;69.30;;;;;;5030913;28;20515;-27
2023/09/17 10:39:39;;;;;;;3.67;2.63;;;20.60;73.30;;;;;;5031713;28;20132;-28
2023/09/17 10:42:07;;;;;;;3.65;2.97;;;20.20;81.50;;;;;;5031604;28;20474;-27
2023/09/17 10:44:36;;;;;;;3.80;3.13;;;18.90;84.50;;;;;;5031595;28;20483;-26
2023/09/17 10:47:03;;;;;;;5.15;2.90;;;19.80;86.60;;;;;;5031412;28;20119;-27
2023/09/17 10:49:31;;;;;;;4.13;3.00;;;;;;;;;;5031555;28;20145;-30
2023/09/17 10:51:58;;;;;;;3.83;2.85;;;;;;;;;;5031328;28;20517;-28
2023/09/17 10:54:26;;;;;;;3.75;2.70;;;20.00;86.20;;;;;;5031067;28;20455;-27
2023/09/17 10:56:54;;;;;;;4.72;3.25;;;20.10;86.70;;;;;;5030963;28;20562;-27
2023/09/17 10:59:21;;;;;;;3.47;2.60;;;19.90;86.10;;;;;;5031713;28;20049;-27
2023/09/17 11:01:47;;;;;;;3.53;2.50;;;20.30;87.20;;;;;;5031535;28;20502;-27
2023/09/17 11:04:15;;;;;;;3.15;2.55;;;19.70;73.80;;;;;;5031541;28;20136;-27
2023/09/17 11:06:42;;;;;;;3.88;2.70;;;20.40;70.90;;;;;;5030799;28;20050;-28
2023/09/17 11:09:11;;;;;;;4.30;2.70;;;;;;;;;;5031465;28;20473;-27
2023/09/17 11:11:40;;;;;;;3.28;2.78;;;21.30;86.70;;;;;;5031353;28;20107;-26
2023/09/17 11:14:08;;;;;;;3.38;2.53;;;20.00;86.80;;;;;;5031293;28;20049;-28
2023/09/17 11:16:35;;;;;;;3.63;2.88;;;20.30;87.00;;;;;;5031367;28;20147;-27
2023/09/17 11:19:06;;;;;;;3.80;2.72;;;21.30;86.70;;;;;;5033931;28;20049;-27
2023/09/17 11:21:35;;;;;;;3.05;2.47;;;20.00;81.30;;;;;;5035005;28;20061;-28
2023/09/17 11:24:05;;;;;;;4.18;2.90;;;21.00;86.40;;;;;;5034698;28;20419;-27
2023/09/17 11:26:32;;;;;;;5.07;2.50;;;20.60;86.10;;;;;;5034659;28;20136;-27
2023/09/17 11:29:00;;;;;;;3.60;2.60;;;20.70;82.80;;;;;;5034999;28;20136;-27
2023/09/17 11:31:27;;;;;;;4.25;2.90;;;19.60;80.10;;;;;;5035209;28;20133;-27
2023/09/17 11:33:54;;;;;;;4.95;2.90;;;19.90;85.80;;;;;;5035404;28;20053;-30
2023/09/17 11:36:21;;;;;;;3.42;2.75;;;;;;;;;;5033618;28;20209;-29
2023/09/17 11:38:48;;;;;;;3.50;2.83;;;20.40;86.30;;;;;;5034747;28;20148;-29
2023/09/17 11:41:16;;;;;;;3.28;2.72;;;20.20;85.80;;;;;;5015177;28;20133;-30
2023/09/17 11:43:44;;;;;;;2.85;2.55;;;20.50;86.20;;;;;;5014897;28;20057;-29
2023/09/17 11:46:13;;;;;;;3.45;2.65;;;20.40;86.20;;;;;;5014454;28;20542;-29
2023/09/17 11:48:41;;;;;;;3.70;2.80;;;20.50;85.20;;;;;;5014781;28;20042;-29
2023/09/17 11:51:19;;;;;;;4.30;2.40;;;20.10;86.40;;;;;;5023337;28;20111;-29
2023/09/17 11:53:50;;;;;;;2.95;2.45;;;19.90;85.90;;;;;;5034648;28;20050;-30
2023/09/17 11:56:17;;;;;;;3.15;2.58;;;20.20;86.00;;;;;;5034113;28;20042;-29
2023/09/17 11:58:44;;;;;;;3.47;2.80;;;20.00;84.10;;;;;;5034266;28;20049;-30
2023/09/17 12:01:12;;;;;;;2.78;2.20;;;20.20;86.10;;;;;;5034223;28;20084;-30
2023/09/17 12:03:39;;;;;;;3.92;2.60;;;20.30;85.60;;;;;;5034105;28;20049;-30
2023/09/17 12:06:06;;;;;;;3.67;2.70;;;;;;;;;;5034127;28;20112;-29
2023/09/17 12:08:33;;;;;;;3.78;2.50;;;20.30;85.70;;;;;;5034198;28;20046;-30
2023/09/17 12:11:03;;;;;;;3.60;2.45;;;;;;;;;;5034277;28;20141;-29
2023/09/17 12:13:30;;;;;;;4.03;2.60;;;20.40;71.90;;;;;;5033561;28;20061;-30
2023/09/17 12:15:57;;;;;;;3.10;2.42;;;19.90;85.40;;;;;;5033782;28;20052;-30
2023/09/17 12:18:26;;;;;;;2.97;2.30;;;20.40;68.90;;;;;;5033573;28;20052;-30
2023/09/17 12:20:56;;;;;;;3.50;2.60;;;20.00;83.70;;;;;;5033970;28;20132;-30
2023/09/17 12:23:36;;;;;;;3.00;2.50;;;20.50;77.10;;;;;;5033842;28;20049;-29
2023/09/17 12:26:04;;;;;;;3.10;2.38;;;20.10;85.60;;;;;;5032671;28;20223;-27
2023/09/17 12:28:31;;;;;;;2.55;2.30;;;;;;;;;;5031834;28;20414;-28
2023/09/17 12:30:58;;;;;;;3.08;2.30;;;20.20;78.40;;;;;;5032742;28;20061;-27
2023/09/17 12:33:26;;;;;;;3.08;2.35;;;20.60;72.10;;;;;;5034000;28;20128;-28
2023/09/17 12:35:53;;;;;;;3.72;2.42;;;20.30;74.90;;;;;;5033144;28;20049;-27
2023/09/17 12:38:20;;;;;;;3.58;2.58;;;19.70;86.20;;;;;;5033645;28;20045;-27
2023/09/17 12:40:46;;;;;;;3.40;2.45;;;20.20;85.50;;;;;;5033144;28;20049;-27
2023/09/17 12:43:13;;;;;;;5.18;2.47;;;20.70;81.10;;;;;;5033162;28;20049;-27
2023/09/17 12:45:40;;;;;;;3.08;2.30;;;20.80;86.70;;;;;;5033436;28;20045;-27
2023/09/17 12:48:07;;;;;;;3.10;2.20;;;20.20;86.40;;;;;;5033154;28;20077;-27
2023/09/17 12:50:38;;;;;;;3.58;2.60;;;20.90;86.70;;;;;;5033354;28;20049;-27
2023/09/17 12:53:05;;;;;;;3.17;2.63;;;20.00;78.00;;;;;;5031504;28;20073;-27
2023/09/17 12:55:33;;;;;;;4.00;2.45;;;20.20;85.40;;;;;;5038016;28;20438;-27
2023/09/17 12:58:00;;;;;;;5.35;2.50;;;19.80;85.40;;;;;;5053457;28;20045;-30
2023/09/17 13:00:27;;;;;;;3.28;2.60;;;20.20;86.50;;;;;;5039326;28;20097;-29
2023/09/17 13:02:54;;;;;;;3.38;2.28;;;;;;;;;;5033459;28;20507;-29
2023/09/17 13:05:21;;;;;;;3.25;2.50;;;20.30;69.60;;;;;;5033027;28;20057;-30
2023/09/17 13:07:49;;;;;;;3.45;2.63;;;20.50;85.60;;;;;;5032951;28;20053;-29
2023/09/17 13:10:19;;;;;;;3.50;2.40;;;20.20;85.40;;;;;;5033224;28;20061;-29